Time;durP1;ratioP1;P1;durP2;ratioP2;P2;SDS_P1;SDS_P2;PMS_P1;PMS_P2;Temp;Humidity;BMP_temperature;BMP_pressure;BME280_temperature;BME280_humidity;BME280_pressure;Samples;Min_cycle;Max_cycle;Signal;HPM_P1;HPM_P2
2022/03/19 00:01:28;;;;;;;44.55;21.80;;;;;;;;;;5095507;28;21352;-76
2022/03/19 00:03:53;;;;;;;44.33;20.58;;;;;;;;;;5094532;28;20028;-76
2022/03/19 00:06:19;;;;;;;47.95;21.55;;;;;;;;;;5094728;28;20039;-76
2022/03/19 00:08:45;;;;;;;49.13;22.60;;;;;;;;;;5095379;28;20103;-75
2022/03/19 00:11:11;;;;;;;40.63;20.73;;;;;;;;;;5095567;28;20481;-75
2022/03/19 00:13:36;;;;;;;38.47;20.77;;;;;;;;;;5093835;28;20058;-77
2022/03/19 00:16:01;;;;;;;41.95;20.73;;;;;;;;;;5094270;28;20040;-77
2022/03/19 00:18:27;;;;;;;44.38;20.38;;;;;;;;;;5095199;28;20496;-76
2022/03/19 00:20:53;;;;;;;42.92;20.48;;;;;;;;;;5094991;28;20024;-76
2022/03/19 00:23:18;;;;;;;45.55;20.60;;;;;;;;;;5095420;28;20022;-76
2022/03/19 00:25:43;;;;;;;40.47;20.33;;;;;;;;;;5094027;28;20027;-76
2022/03/19 00:28:09;;;;;;;48.20;20.58;;;;;;;;;;5094945;28;20025;-78
2022/03/19 00:30:34;;;;;;;37.38;20.02;;;;;;;;;;5094756;28;20423;-76
2022/03/19 00:32:59;;;;;;;46.55;20.83;;;;;;;;;;5093511;28;20103;-77
2022/03/19 00:35:24;;;;;;;50.83;22.08;;;;;;;;;;5094756;28;20035;-78
2022/03/19 00:37:53;;;;;;;40.63;20.75;;;;;;;;;;5095298;28;20023;-76
2022/03/19 00:40:22;;;;;;;45.72;21.38;;;;;;;;;;5094738;28;20063;-76
2022/03/19 00:42:48;;;;;;;42.45;21.35;;;;;;;;;;5094711;28;20088;-76
2022/03/19 00:45:14;;;;;;;37.33;19.75;;;;;;;;;;5093156;28;20430;-76
2022/03/19 00:47:39;;;;;;;41.63;21.17;;;;;;;;;;5093549;28;20024;-76
2022/03/19 00:50:06;;;;;;;50.88;22.20;;;;;;;;;;5093410;28;20024;-76
2022/03/19 00:52:31;;;;;;;41.83;20.80;;;;;;;;;;5095061;28;20110;-76
2022/03/19 00:54:57;;;;;;;40.10;20.67;;;;;;;;;;5095187;28;20063;-77
2022/03/19 00:57:22;;;;;;;47.38;21.92;;;;;;;;;;5094254;28;20031;-76
2022/03/19 00:59:48;;;;;;;43.03;22.00;;;;;;;;;;5096787;28;20024;-77
2022/03/19 01:02:13;;;;;;;43.83;20.90;;;;;;;;;;5098431;28;20016;-77
2022/03/19 01:04:38;;;;;;;47.72;22.38;;;;;;;;;;5098347;28;20043;-77
2022/03/19 01:07:03;;;;;;;45.03;21.42;;;;;;;;;;5098315;28;20043;-77
2022/03/19 01:09:29;;;;;;;42.15;20.23;;;;;;;;;;5098320;28;20023;-77
2022/03/19 01:11:54;;;;;;;39.58;20.13;;;;;;;;;;5096664;28;20028;-76
2022/03/19 01:14:20;;;;;;;47.45;20.42;;;;;;;;;;5097804;28;20499;-77
2022/03/19 01:16:45;;;;;;;44.38;21.65;;;;;;;;;;5097643;28;20036;-76
2022/03/19 01:19:10;;;;;;;46.97;20.88;;;;;;;;;;5097800;28;20039;-77
2022/03/19 01:21:35;;;;;;;38.60;19.02;;;;;;;;;;5097830;28;20393;-76
2022/03/19 01:24:02;;;;;;;44.03;21.48;;;;;;;;;;5098295;28;20035;-77
2022/03/19 01:26:27;;;;;;;43.70;21.20;;;;;;;;;;5098045;28;20024;-77
2022/03/19 01:28:52;;;;;;;40.88;19.77;;;;;;;;;;5097852;28;20032;-77
2022/03/19 01:31:19;;;;;;;42.38;20.45;;;;;;;;;;5098309;28;20028;-76
2022/03/19 01:33:44;;;;;;;41.80;21.48;;;;;;;;;;5095924;28;20023;-77
2022/03/19 01:36:11;;;;;;;45.30;21.80;;;;;;;;;;5097225;28;20036;-76
2022/03/19 01:38:37;;;;;;;48.85;21.77;;;;;;;;;;5097216;28;20024;-76
2022/03/19 01:41:03;;;;;;;47.47;22.40;;;;;;;;;;5097071;28;20480;-77
2022/03/19 01:43:28;;;;;;;43.75;21.05;;;;;;;;;;5097079;28;20098;-77
2022/03/19 01:45:53;;;;;;;39.42;21.05;;;;;;;;;;5097539;28;20106;-77
2022/03/19 01:48:19;;;;;;;49.42;22.10;;;;;;;;;;5097023;28;20032;-78
2022/03/19 01:50:44;;;;;;;46.92;21.83;;;;;;;;;;5095889;28;20042;-76
2022/03/19 01:53:09;;;;;;;45.30;22.27;;;;;;;;;;5097185;28;20016;-76
2022/03/19 01:55:35;;;;;;;44.30;21.95;;;;;;;;;;5095511;28;20082;-76
2022/03/19 01:58:00;;;;;;;41.60;21.42;;;;;;;;;;5096889;28;20028;-77
2022/03/19 02:00:25;;;;;;;42.78;20.77;;;;;;;;;;5096637;28;20020;-76
2022/03/19 02:02:53;;;;;;;44.60;20.58;;;;;;;;;;5096506;28;20366;-76
2022/03/19 02:05:20;;;;;;;44.58;21.85;;;;;;;;;;5095766;28;20519;-77
2022/03/19 02:07:46;;;;;;;42.20;21.25;;;;;;;;;;5096524;28;20024;-77
2022/03/19 02:10:13;;;;;;;41.42;20.17;;;;;;;;;;5097137;28;20023;-76
2022/03/19 02:12:40;;;;;;;47.50;21.73;;;;;;;;;;5096866;28;20028;-76
2022/03/19 02:15:06;;;;;;;44.53;21.75;;;;;;;;;;5096984;28;20397;-76
2022/03/19 02:17:32;;;;;;;47.90;20.80;;;;;;;;;;5097055;28;20034;-76
2022/03/19 02:19:57;;;;;;;42.67;21.75;;;;;;;;;;5095520;28;20020;-76
2022/03/19 02:22:25;;;;;;;43.85;19.83;;;;;;;;;;5096579;28;20396;-76
2022/03/19 02:27:36;;;;;;;40.58;18.98;;;;;;;;;;5097234;28;20031;-76
2022/03/19 02:30:02;;;;;;;38.72;19.52;;;;;;;;;;5096681;28;20119;-76
2022/03/19 02:32:27;;;;;;;36.25;18.95;;;;;;;;;;5098022;28;20020;-76
2022/03/19 02:34:54;;;;;;;45.72;18.45;;;;;;;;;;5097398;28;20085;-76
2022/03/19 02:37:20;;;;;;;36.17;18.00;;;;;;;;;;5097595;28;20072;-78
2022/03/19 02:39:45;;;;;;;40.10;18.67;;;;;;;;;;5097642;28;20107;-75
2022/03/19 02:42:10;;;;;;;37.95;17.48;;;;;;;;;;5095882;28;20028;-76
2022/03/19 02:44:36;;;;;;;38.35;17.88;;;;;;;;;;5097061;28;20031;-76
2022/03/19 02:47:06;;;;;;;36.17;17.13;;;;;;;;;;5096268;28;20039;-76
2022/03/19 02:49:32;;;;;;;33.30;16.90;;;;;;;;;;5096001;28;20026;-75
2022/03/19 02:51:57;;;;;;;36.65;17.67;;;;;;;;;;5096734;28;20098;-76
2022/03/19 02:54:25;;;;;;;43.13;18.05;;;;;;;;;;5096823;28;20114;-75
2022/03/19 02:56:51;;;;;;;38.13;17.10;;;;;;;;;;5096866;28;20020;-76
2022/03/19 02:59:21;;;;;;;36.22;16.98;;;;;;;;;;5097324;28;20020;-76
2022/03/19 03:01:49;;;;;;;31.13;15.95;;;;;;;;;;5096805;28;20035;-76
2022/03/19 03:04:15;;;;;;;33.17;16.38;;;;;;;;;;5097467;28;20016;-76
2022/03/19 03:06:42;;;;;;;32.00;15.52;;;;;;;;;;5096703;28;20031;-76
2022/03/19 03:09:09;;;;;;;34.85;15.40;;;;;;;;;;5097190;28;20473;-76
2022/03/19 03:11:36;;;;;;;36.70;15.93;;;;;;;;;;5097902;28;20032;-76
2022/03/19 03:14:02;;;;;;;33.05;14.68;;;;;;;;;;5096706;28;20515;-76
2022/03/19 03:16:28;;;;;;;34.50;14.63;;;;;;;;;;5097369;28;20469;-76
2022/03/19 03:18:55;;;;;;;30.60;14.43;;;;;;;;;;5097046;28;20059;-76
2022/03/19 03:21:21;;;;;;;31.20;14.45;;;;;;;;;;5095579;28;20100;-76
2022/03/19 03:23:46;;;;;;;31.65;16.05;;;;;;;;;;5095884;28;20016;-76
2022/03/19 03:26:11;;;;;;;31.88;13.95;;;;;;;;;;5096433;28;20473;-76
2022/03/19 03:28:36;;;;;;;31.50;13.23;;;;;;;;;;5095618;28;20031;-77
2022/03/19 03:31:02;;;;;;;29.98;12.95;;;;;;;;;;5095580;28;20035;-76
2022/03/19 03:33:27;;;;;;;24.90;13.05;;;;;;;;;;5095834;28;20431;-76
2022/03/19 03:35:52;;;;;;;28.02;12.80;;;;;;;;;;5096461;28;20557;-77
2022/03/19 03:38:18;;;;;;;27.42;12.50;;;;;;;;;;5096576;28;20520;-77
2022/03/19 03:40:44;;;;;;;31.38;13.20;;;;;;;;;;5096753;28;20393;-76
2022/03/19 03:43:09;;;;;;;29.15;12.23;;;;;;;;;;5095984;28;20016;-77
2022/03/19 03:45:35;;;;;;;28.88;12.00;;;;;;;;;;5094192;28;20061;-77
2022/03/19 03:48:00;;;;;;;24.50;11.60;;;;;;;;;;5096091;28;20117;-77
2022/03/19 03:50:26;;;;;;;23.67;11.68;;;;;;;;;;5096273;28;20031;-77
2022/03/19 03:52:51;;;;;;;26.75;12.27;;;;;;;;;;5095825;28;20028;-76
2022/03/19 03:55:17;;;;;;;24.55;11.70;;;;;;;;;;5095755;28;20086;-76
2022/03/19 03:57:42;;;;;;;27.15;11.55;;;;;;;;;;5095084;28;20484;-77
2022/03/19 04:00:08;;;;;;;27.17;12.05;;;;;;;;;;5093600;28;20081;-76
2022/03/19 04:02:35;;;;;;;29.58;11.88;;;;;;;;;;5095017;28;20081;-76
2022/03/19 04:05:00;;;;;;;28.92;11.35;;;;;;;;;;5095007;28;20027;-76
2022/03/19 04:07:27;;;;;;;25.77;11.07;;;;;;;;;;5094703;28;20396;-76
2022/03/19 04:09:53;;;;;;;24.30;10.73;;;;;;;;;;5093510;28;20202;-77
2022/03/19 04:12:18;;;;;;;20.58;10.77;;;;;;;;;;5093190;28;20020;-76
2022/03/19 04:14:43;;;;;;;23.73;10.30;;;;;;;;;;5093118;28;20020;-77
2022/03/19 04:17:08;;;;;;;19.08;9.23;;;;;;;;;;5094706;28;20063;-77
2022/03/19 04:19:34;;;;;;;22.77;9.98;;;;;;;;;;5095335;28;20024;-76
2022/03/19 04:21:59;;;;;;;27.23;10.82;;;;;;;;;;5094858;28;20023;-77
2022/03/19 04:24:25;;;;;;;23.55;10.23;;;;;;;;;;5094598;28;20017;-76
2022/03/19 04:26:51;;;;;;;21.85;9.90;;;;;;;;;;5093333;28;20020;-76
2022/03/19 04:29:16;;;;;;;19.50;9.88;;;;;;;;;;5094678;28;20028;-76
2022/03/19 04:31:41;;;;;;;24.75;10.30;;;;;;;;;;5094200;28;20477;-76
2022/03/19 04:34:06;;;;;;;21.35;9.93;;;;;;;;;;5095197;28;20031;-76
2022/03/19 04:36:38;;;;;;;24.67;9.20;;;;;;;;;;5098368;28;20032;-76
2022/03/19 04:39:05;;;;;;;22.30;9.57;;;;;;;;;;5097412;28;20032;-75
2022/03/19 04:41:31;;;;;;;23.88;9.40;;;;;;;;;;5098707;28;20039;-77
2022/03/19 04:43:56;;;;;;;22.80;8.95;;;;;;;;;;5099207;28;20023;-76
2022/03/19 04:46:21;;;;;;;19.75;8.07;;;;;;;;;;5098173;28;20028;-76
2022/03/19 04:48:47;;;;;;;22.27;8.85;;;;;;;;;;5098566;28;20484;-76
2022/03/19 04:51:14;;;;;;;16.23;8.05;;;;;;;;;;5096828;28;20024;-75
2022/03/19 04:53:41;;;;;;;21.23;9.05;;;;;;;;;;5097587;28;20106;-76
2022/03/19 04:56:06;;;;;;;21.70;8.30;;;;;;;;;;5097782;28;20032;-76
2022/03/19 04:58:35;;;;;;;25.05;8.43;;;;;;;;;;5097756;28;20035;-76
2022/03/19 05:01:00;;;;;;;21.33;8.43;;;;;;;;;;5097352;28;20032;-76
2022/03/19 05:03:26;;;;;;;18.23;9.00;;;;;;;;;;5098240;28;20024;-77
2022/03/19 05:05:52;;;;;;;17.98;7.20;;;;;;;;;;5097840;28;20499;-77
2022/03/19 05:08:17;;;;;;;19.67;8.70;;;;;;;;;;5096170;28;20028;-76
2022/03/19 05:13:27;;;;;;;22.02;8.38;;;;;;;;;;5098056;28;20405;-76
2022/03/19 05:15:53;;;;;;;18.70;8.18;;;;;;;;;;5097779;28;20028;-76
2022/03/19 05:18:19;;;;;;;15.48;7.75;;;;;;;;;;5097291;28;20031;-76
2022/03/19 05:20:44;;;;;;;18.98;8.38;;;;;;;;;;5097443;28;20459;-76
2022/03/19 05:23:10;;;;;;;18.17;8.20;;;;;;;;;;5097245;28;20019;-76
2022/03/19 05:25:35;;;;;;;21.95;8.90;;;;;;;;;;5097352;28;20103;-76
2022/03/19 05:28:00;;;;;;;21.80;9.02;;;;;;;;;;5097307;28;20051;-76
2022/03/19 05:30:25;;;;;;;16.33;7.22;;;;;;;;;;5097116;28;20031;-76
2022/03/19 05:32:51;;;;;;;20.40;8.75;;;;;;;;;;5097972;28;20465;-77
2022/03/19 05:35:21;;;;;;;24.80;9.02;;;;;;;;;;5098272;28;20038;-76
2022/03/19 05:37:49;;;;;;;19.50;7.05;;;;;;;;;;5097880;28;20405;-76
2022/03/19 05:40:15;;;;;;;20.50;7.65;;;;;;;;;;5096596;28;20111;-75
2022/03/19 05:42:41;;;;;;;11.90;5.55;;;;;;;;;;5097934;28;20048;-75
2022/03/19 05:45:06;;;;;;;12.18;5.40;;;;;;;;;;5097579;28;20027;-76
2022/03/19 05:47:32;;;;;;;20.95;7.38;;;;;;;;;;5098330;28;20020;-76
2022/03/19 05:49:57;;;;;;;22.38;8.10;;;;;;;;;;5098513;28;20473;-76
2022/03/19 05:52:22;;;;;;;15.90;6.88;;;;;;;;;;5098076;28;20500;-76
2022/03/19 05:54:47;;;;;;;19.52;7.22;;;;;;;;;;5097817;28;20020;-76
2022/03/19 05:57:13;;;;;;;16.73;7.47;;;;;;;;;;5096915;28;20537;-76
2022/03/19 05:59:38;;;;;;;17.45;7.00;;;;;;;;;;5097280;28;20020;-76
2022/03/19 06:02:05;;;;;;;11.32;5.80;;;;;;;;;;5097261;28;20024;-76
2022/03/19 06:04:31;;;;;;;17.67;7.00;;;;;;;;;;5097275;28;20370;-76
2022/03/19 06:06:56;;;;;;;16.50;6.13;;;;;;;;;;5096791;28;20028;-76
2022/03/19 06:09:22;;;;;;;16.45;6.50;;;;;;;;;;5095565;28;20034;-76
2022/03/19 06:11:47;;;;;;;14.85;7.00;;;;;;;;;;5096180;28;20020;-77
2022/03/19 06:14:12;;;;;;;16.55;5.57;;;;;;;;;;5095773;28;20062;-76
2022/03/19 06:16:37;;;;;;;13.18;6.10;;;;;;;;;;5097067;28;20024;-76
2022/03/19 06:19:03;;;;;;;17.20;6.40;;;;;;;;;;5094948;28;20031;-77
2022/03/19 06:21:28;;;;;;;16.33;6.28;;;;;;;;;;5095879;28;20031;-76
2022/03/19 06:23:53;;;;;;;18.15;7.20;;;;;;;;;;5096590;28;20012;-76
2022/03/19 06:26:20;;;;;;;16.42;6.70;;;;;;;;;;5096537;28;20039;-76
2022/03/19 06:28:45;;;;;;;19.00;6.88;;;;;;;;;;5096559;28;20081;-76
2022/03/19 06:31:11;;;;;;;18.60;6.63;;;;;;;;;;5094781;28;20028;-76
2022/03/19 06:33:39;;;;;;;19.23;6.30;;;;;;;;;;5095864;28;20015;-77
2022/03/19 06:38:49;;;;;;;12.38;6.10;;;;;;;;;;5096107;28;20070;-78
2022/03/19 06:41:14;;;;;;;19.05;6.00;;;;;;;;;;5095644;28;20477;-77
2022/03/19 06:43:39;;;;;;;20.85;6.00;;;;;;;;;;5095581;28;20560;-76
2022/03/19 06:46:05;;;;;;;15.35;5.90;;;;;;;;;;5096321;28;20091;-77
2022/03/19 06:48:30;;;;;;;19.60;5.47;;;;;;;;;;5096114;28;20028;-77
2022/03/19 06:50:55;;;;;;;17.67;5.90;;;;;;;;;;5095861;28;20020;-77
2022/03/19 06:53:22;;;;;;;16.77;5.53;;;;;;;;;;5094587;28;20019;-77
2022/03/19 06:55:47;;;;;;;13.32;5.63;;;;;;;;;;5094818;28;20488;-77
2022/03/19 06:58:13;;;;;;;15.05;6.32;;;;;;;;;;5094659;28;20063;-75
2022/03/19 07:00:40;;;;;;;19.67;6.40;;;;;;;;;;5094814;28;20019;-75
2022/03/19 07:03:05;;;;;;;16.15;6.45;;;;;;;;;;5094576;28;20031;-73
2022/03/19 07:05:31;;;;;;;19.60;6.68;;;;;;;;;;5094666;28;20024;-72
2022/03/19 07:07:58;;;;;;;25.98;7.15;;;;;;;;;;5094784;28;20020;-74
2022/03/19 07:10:23;;;;;;;17.67;7.10;;;;;;;;;;5094413;28;20110;-73
2022/03/19 07:12:52;;;;;;;13.88;5.03;;;;;;;;;;5094264;28;20237;-80
2022/03/19 07:15:20;;;;;;;18.98;6.82;;;;;;;;;;5096455;28;20039;-76
2022/03/19 07:17:46;;;;;;;21.33;6.60;;;;;;;;;;5096747;28;20476;-76
2022/03/19 07:20:13;;;;;;;19.52;7.65;;;;;;;;;;5095338;28;20479;-77
2022/03/19 07:23:08;;;;;;;22.30;7.88;;;;;;;;;;5094621;28;20052;-75
2022/03/19 07:25:37;;;;;;;;;;;;;;;;;;5078176;28;20040;-76
2022/03/19 07:28:06;;;;;;;19.52;8.02;;;;;;;;;;5094835;28;19912;-75
2022/03/19 07:30:32;;;;;;;18.65;8.25;;;;;;;;;;5094517;28;20119;-75
2022/03/19 07:32:57;;;;;;;23.08;8.38;;;;;;;;;;5094461;28;20027;-77
2022/03/19 07:35:23;;;;;;;17.80;7.65;;;;;;;;;;5093217;28;20397;-75
2022/03/19 07:37:49;;;;;;;21.10;8.05;;;;;;;;;;5093347;28;20020;-75
2022/03/19 07:41:45;;;;;;;21.38;7.60;;;;;;;;;;5095325;28;20020;-77
2022/03/19 07:43:03;;;;;;;21.42;8.13;;;;;;;;;;5095153;28;20115;-76
2022/03/19 07:45:30;;;;;;;20.20;8.52;;;;;;;;;;5095222;28;20024;-76
2022/03/19 07:47:55;;;;;;;18.67;8.82;;;;;;;;;;5095088;28;20388;-76
2022/03/19 07:50:21;;;;;;;17.58;7.55;;;;;;;;;;5095119;28;20024;-75
2022/03/19 07:52:47;;;;;;;22.58;9.43;;;;;;;;;;5095073;28;20020;-76
2022/03/19 07:55:13;;;;;;;25.85;9.43;;;;;;;;;;5095123;28;20028;-75
2022/03/19 07:57:38;;;;;;;21.42;9.18;;;;;;;;;;5095006;28;20393;-75
2022/03/19 08:00:03;;;;;;;20.63;9.27;;;;;;;;;;5093792;28;20024;-77
2022/03/19 08:02:29;;;;;;;24.40;9.35;;;;;;;;;;5094914;28;20069;-76
2022/03/19 08:04:54;;;;;;;21.05;9.25;;;;;;;;;;5095249;28;20089;-76
2022/03/19 08:07:19;;;;;;;30.02;10.52;;;;;;;;;;5095131;28;20101;-77
2022/03/19 08:09:45;;;;;;;24.10;9.30;;;;;;;;;;5093159;28;20024;-77
2022/03/19 08:12:10;;;;;;;22.30;9.40;;;;;;;;;;5094634;28;20107;-77
2022/03/19 08:14:36;;;;;;;17.25;8.70;;;;;;;;;;5095201;28;20098;-76
2022/03/19 08:17:01;;;;;;;23.08;10.23;;;;;;;;;;5094395;28;20380;-77
2022/03/19 08:19:28;;;;;;;26.05;9.65;;;;;;;;;;5093590;28;20502;-76
2022/03/19 08:21:53;;;;;;;24.05;9.70;;;;;;;;;;5093518;28;20028;-76
2022/03/19 08:24:19;;;;;;;17.48;6.88;;;;;;;;;;5093733;28;20024;-77
2022/03/19 08:26:46;;;;;;;13.80;7.20;;;;;;;;;;5095192;28;20507;-77
2022/03/19 08:29:11;;;;;;;24.35;9.63;;;;;;;;;;5095226;28;20041;-77
2022/03/19 08:31:36;;;;;;;23.38;9.88;;;;;;;;;;5094838;28;20036;-76
2022/03/19 08:34:02;;;;;;;22.75;9.65;;;;;;;;;;5094689;28;20392;-76
2022/03/19 08:36:27;;;;;;;19.15;9.20;;;;;;;;;;5094159;28;20032;-77
2022/03/19 08:41:36;;;;;;;20.60;9.02;;;;;;;;;;5095002;28;20081;-76
2022/03/19 08:44:02;;;;;;;17.30;8.23;;;;;;;;;;5093839;28;20028;-76
2022/03/19 08:46:28;;;;;;;20.70;9.80;;;;;;;;;;5092788;28;20031;-77
2022/03/19 08:48:53;;;;;;;22.50;9.57;;;;;;;;;;5094029;28;20024;-77
2022/03/19 08:54:06;;;;;;;17.10;9.20;;;;;;;;;;5094267;28;20512;-77
2022/03/19 08:56:32;;;;;;;21.85;8.88;;;;;;;;;;5094078;28;20166;-77
2022/03/19 08:58:59;;;;;;;16.63;8.60;;;;;;;;;;5093049;28;20024;-77
2022/03/19 09:01:24;;;;;;;16.92;8.60;;;;;;;;;;5093341;28;20479;-77
2022/03/19 09:03:49;;;;;;;17.65;8.65;;;;;;;;;;5093259;28;20012;-76
2022/03/19 09:06:14;;;;;;;21.92;9.02;;;;;;;;;;5095049;28;20465;-77
2022/03/19 09:08:43;;;;;;;25.33;9.40;;;;;;;;;;5094639;28;20020;-77
2022/03/19 09:11:10;;;;;;;15.43;8.02;;;;;;;;;;5094413;28;20031;-77
2022/03/19 09:13:36;;;;;;;19.63;9.35;;;;;;;;;;5093904;28;20077;-77
2022/03/19 09:16:02;;;;;;;14.60;7.22;;;;;;;;;;5094344;28;20078;-77
2022/03/19 09:18:28;;;;;;;14.23;7.20;;;;;;;;;;5093145;28;20031;-77
2022/03/19 09:20:53;;;;;;;18.40;7.70;;;;;;;;;;5094993;28;20024;-77
2022/03/19 09:23:18;;;;;;;15.27;7.60;;;;;;;;;;5097355;28;20028;-77
2022/03/19 09:25:43;;;;;;;15.38;6.82;;;;;;;;;;5098087;28;20024;-77
2022/03/19 09:28:09;;;;;;;14.15;6.88;;;;;;;;;;5095517;28;20073;-77
2022/03/19 09:30:34;;;;;;;13.15;6.65;;;;;;;;;;5096713;28;20499;-77
2022/03/19 09:33:00;;;;;;;11.18;4.80;;;;;;;;;;5096516;28;20025;-76
2022/03/19 09:35:26;;;;;;;11.27;6.68;;;;;;;;;;5095228;28;20060;-76
2022/03/19 09:37:51;;;;;;;11.50;6.28;;;;;;;;;;5096614;28;20028;-77
2022/03/19 09:40:17;;;;;;;18.10;5.65;;;;;;;;;;5097311;28;20093;-76
2022/03/19 09:42:51;;;;;;;10.60;5.35;;;;;;;;;;5096663;28;20055;-75
2022/03/19 09:45:22;;;;;;;16.42;6.63;;;;;;;;;;5094955;28;20016;-76
2022/03/19 09:47:49;;;;;;;10.57;5.43;;;;;;;;;;5096258;28;20485;-76
2022/03/19 09:50:14;;;;;;;9.02;4.97;;;;;;;;;;5096584;28;20036;-76
2022/03/19 09:52:42;;;;;;;10.60;5.18;;;;;;;;;;5096153;28;20035;-76
2022/03/19 09:55:12;;;;;;;11.65;6.00;;;;;;;;;;5096116;28;20378;-77
2022/03/19 09:57:37;;;;;;;11.23;4.40;;;;;;;;;;5096035;28;20114;-77
2022/03/19 10:00:03;;;;;;;9.90;4.90;;;;;;;;;;5096260;28;20120;-77
2022/03/19 10:02:28;;;;;;;9.63;4.70;;;;;;;;;;5096273;28;20036;-76
2022/03/19 10:04:56;;;;;;;11.35;4.90;;;;;;;;;;5094814;28;20020;-77
2022/03/19 10:10:08;;;;;;;6.65;3.78;;;;;;;;;;5096826;28;20034;-76
2022/03/19 10:12:33;;;;;;;9.38;4.45;;;;;;;;;;5096050;28;20086;-76
2022/03/19 10:14:59;;;;;;;10.93;5.18;;;;;;;;;;5094759;28;20032;-76
2022/03/19 10:17:29;;;;;;;10.32;5.20;;;;;;;;;;5094722;28;20451;-77
2022/03/19 10:19:58;;;;;;;13.13;5.50;;;;;;;;;;5096077;28;20028;-76
2022/03/19 10:22:25;;;;;;;11.23;5.50;;;;;;;;;;5095575;28;20028;-76
2022/03/19 10:25:11;;;;;;;10.77;5.20;;;;;;;;;;5095685;28;20035;-76
2022/03/19 10:27:42;;;;;;;9.93;5.32;;;;;;;;;;5095638;28;20069;-76
2022/03/19 10:30:16;;;;;;;9.88;5.18;;;;;;;;;;5095151;28;20024;-77
2022/03/19 10:32:44;;;;;;;6.30;3.30;;;;;;;;;;5094044;28;20485;-76
2022/03/19 10:35:30;;;;;;;17.00;5.95;;;;;;;;;;5094947;28;20073;-78
2022/03/19 10:37:57;;;;;;;9.18;5.32;;;;;;;;;;5095879;28;20028;-76
2022/03/19 10:40:22;;;;;;;14.90;7.18;;;;;;;;;;5096939;28;20107;-78
2022/03/19 10:42:51;;;;;;;9.35;4.90;;;;;;;;;;5096866;28;20062;-77
2022/03/19 10:45:22;;;;;;;14.48;6.90;;;;;;;;;;5095826;28;20054;-77
2022/03/19 10:47:47;;;;;;;17.42;8.48;;;;;;;;;;5096771;28;20074;-77
2022/03/19 10:50:23;;;;;;;13.40;7.65;;;;;;;;;;5095758;28;20499;-77
2022/03/19 10:52:50;;;;;;;15.02;8.30;;;;;;;;;;5095728;28;20105;-78
2022/03/19 10:55:17;;;;;;;16.08;7.97;;;;;;;;;;5095579;28;20118;-77
2022/03/19 10:57:42;;;;;;;14.85;7.43;;;;;;;;;;5096706;28;20031;-78
2022/03/19 11:00:10;;;;;;;18.05;8.63;;;;;;;;;;5098548;28;20035;-78
2022/03/19 11:02:40;;;;;;;16.33;8.52;;;;;;;;;;5099401;28;20051;-79
2022/03/19 11:05:07;;;;;;;12.68;4.97;;;;;;;;;;5097272;28;20047;-77
2022/03/19 11:07:35;;;;;;;15.70;7.38;;;;;;;;;;5097765;28;20115;-78
2022/03/19 11:10:04;;;;;;;15.48;8.30;;;;;;;;;;5096983;28;20042;-77
2022/03/19 11:12:32;;;;;;;20.52;8.63;;;;;;;;;;5097194;28;20032;-79
2022/03/19 11:14:59;;;;;;;15.25;6.15;;;;;;;;;;5099518;28;20022;-78
2022/03/19 11:17:28;;;;;;;25.52;8.75;;;;;;;;;;5097652;28;20070;-78
2022/03/19 11:19:56;;;;;;;12.27;7.40;;;;;;;;;;5094886;28;20031;-78
2022/03/19 11:22:22;;;;;;;9.68;5.85;;;;;;;;;;5096124;28;20020;-78
2022/03/19 11:25:08;;;;;;;17.42;8.73;;;;;;;;;;5096768;28;20500;-77
2022/03/19 11:27:41;;;;;;;15.32;7.80;;;;;;;;;;5096171;28;20031;-78
2022/03/19 11:30:14;;;;;;;18.08;8.20;;;;;;;;;;5095226;28;20481;-77
2022/03/19 11:32:58;;;;;;;17.23;7.57;;;;;;;;;;5095701;28;20550;-79
2022/03/19 11:35:27;;;;;;;21.45;7.88;;;;;;;;;;5098591;28;20032;-77
2022/03/19 11:38:11;;;;;;;13.25;7.78;;;;;;;;;;5096739;28;20055;-78
2022/03/19 11:40:38;;;;;;;12.30;8.15;;;;;;;;;;5095584;28;20023;-79
2022/03/19 11:43:05;;;;;;;14.05;8.02;;;;;;;;;;5097079;28;20036;-79
2022/03/19 11:46:10;;;;;;;15.02;7.40;;;;;;;;;;5095608;28;20020;-79
2022/03/19 11:48:36;;;;;;;12.10;6.43;;;;;;;;;;5098379;28;20050;-79
2022/03/19 11:51:26;;;;;;;10.65;6.65;;;;;;;;;;5098121;28;20020;-78
2022/03/19 11:54:12;;;;;;;18.23;7.95;;;;;;;;;;5094106;28;20020;-78
2022/03/19 11:56:44;;;;;;;15.07;9.02;;;;;;;;;;5095961;28;20020;-77
2022/03/19 11:59:13;;;;;;;19.15;9.80;;;;;;;;;;5093464;28;20031;-78
2022/03/19 12:01:57;;;;;;;12.85;6.78;;;;;;;;;;5094928;28;20551;-79
2022/03/19 12:04:24;;;;;;;16.02;7.75;;;;;;;;;;5093985;28;20031;-78
2022/03/19 12:06:57;;;;;;;14.73;8.60;;;;;;;;;;5095053;28;20028;-78
2022/03/19 12:09:52;;;;;;;9.82;5.93;;;;;;;;;;5098348;28;20020;-78
2022/03/19 12:12:18;;;;;;;15.75;8.02;;;;;;;;;;5096840;28;20039;-77
2022/03/19 12:14:44;;;;;;;11.00;5.87;;;;;;;;;;5097688;28;20024;-78
2022/03/19 12:17:15;;;;;;;17.30;7.72;;;;;;;;;;5095235;28;20031;-77
2022/03/19 12:19:54;;;;;;;14.95;8.32;;;;;;;;;;5095298;28;20028;-79
2022/03/19 12:22:30;;;;;;;14.25;9.00;;;;;;;;;;5096122;28;20420;-76
2022/03/19 12:25:20;;;;;;;16.60;9.00;;;;;;;;;;5095474;28;20024;-78
2022/03/19 12:27:53;;;;;;;17.40;8.57;;;;;;;;;;5095421;28;20042;-78
2022/03/19 12:30:21;;;;;;;13.32;6.97;;;;;;;;;;5094946;28;20024;-78
2022/03/19 12:32:55;;;;;;;11.93;6.88;;;;;;;;;;5095866;28;20497;-78
2022/03/19 12:35:24;;;;;;;14.05;7.65;;;;;;;;;;5094900;28;20032;-77
2022/03/19 12:37:57;;;;;;;15.13;9.52;;;;;;;;;;5095471;28;20370;-77
2022/03/19 12:40:25;;;;;;;17.17;8.57;;;;;;;;;;5095793;28;20393;-78
2022/03/19 12:42:52;;;;;;;12.43;6.75;;;;;;;;;;5095914;28;20028;-79
2022/03/19 12:45:18;;;;;;;13.30;8.35;;;;;;;;;;5096048;28;20024;-78
2022/03/19 12:47:43;;;;;;;13.90;7.18;;;;;;;;;;5094835;28;20035;-78
2022/03/19 12:50:09;;;;;;;12.82;6.82;;;;;;;;;;5095055;28;20024;-78
2022/03/19 12:52:43;;;;;;;16.67;8.45;;;;;;;;;;5095501;28;20095;-78
2022/03/19 12:55:18;;;;;;;13.10;7.32;;;;;;;;;;5097283;28;20032;-77
2022/03/19 12:57:53;;;;;;;13.90;8.13;;;;;;;;;;5099490;28;20036;-77
2022/03/19 13:00:19;;;;;;;15.25;9.18;;;;;;;;;;5098836;28;20366;-77
2022/03/19 13:02:52;;;;;;;13.98;7.18;;;;;;;;;;5098330;28;20050;-77
2022/03/19 13:05:17;;;;;;;9.40;5.28;;;;;;;;;;5098669;28;20079;-78
2022/03/19 13:08:06;;;;;;;20.45;10.00;;;;;;;;;;5098529;28;20177;-77
2022/03/19 13:10:41;;;;;;;13.35;7.20;;;;;;;;;;5098641;28;20091;-78
2022/03/19 13:13:08;;;;;;;14.63;8.13;;;;;;;;;;5098251;28;20020;-78
2022/03/19 13:15:33;;;;;;;13.30;8.02;;;;;;;;;;5097953;28;20039;-78
2022/03/19 13:17:59;;;;;;;16.23;9.65;;;;;;;;;;5098101;28;20024;-78
2022/03/19 13:20:25;;;;;;;16.13;8.70;;;;;;;;;;5099042;28;20031;-79
2022/03/19 13:22:58;;;;;;;17.17;7.88;;;;;;;;;;5102411;28;20036;-78
2022/03/19 13:25:26;;;;;;;17.60;7.90;;;;;;;;;;5101094;28;20110;-78
2022/03/19 13:27:51;;;;;;;13.90;7.13;;;;;;;;;;5098518;28;20447;-78
2022/03/19 13:30:16;;;;;;;15.50;8.60;;;;;;;;;;5098401;28;20020;-77
2022/03/19 13:32:44;;;;;;;24.17;9.50;;;;;;;;;;5098052;28;20028;-78
2022/03/19 13:35:09;;;;;;;15.35;7.63;;;;;;;;;;5101246;28;20092;-77
2022/03/19 13:37:37;;;;;;;13.73;8.25;;;;;;;;;;5098268;28;20059;-77
2022/03/19 13:40:04;;;;;;;15.82;8.25;;;;;;;;;;5097044;28;20016;-78
2022/03/19 13:42:36;;;;;;;15.02;8.40;;;;;;;;;;5097877;28;20089;-78
2022/03/19 13:45:13;;;;;;;24.25;11.10;;;;;;;;;;5097552;28;20020;-77
2022/03/19 13:47:46;;;;;;;18.10;9.55;;;;;;;;;;5098626;28;20089;-77
2022/03/19 13:50:15;;;;;;;12.57;7.20;;;;;;;;;;5098013;28;20047;-77
2022/03/19 13:52:45;;;;;;;12.60;7.40;;;;;;;;;;5097875;28;20408;-77
2022/03/19 13:55:13;;;;;;;15.02;6.43;;;;;;;;;;5098446;28;20039;-77
2022/03/19 13:57:41;;;;;;;18.33;9.65;;;;;;;;;;5098502;28;20024;-77
2022/03/19 14:00:14;;;;;;;16.10;7.72;;;;;;;;;;5098662;28;20515;-78
2022/03/19 14:02:41;;;;;;;16.60;6.53;;;;;;;;;;5099342;28;20127;-77
2022/03/19 14:05:10;;;;;;;14.23;7.25;;;;;;;;;;5098435;28;20411;-79
2022/03/19 14:07:37;;;;;;;13.63;6.63;;;;;;;;;;5097969;28;20022;-77
2022/03/19 14:10:06;;;;;;;13.93;7.40;;;;;;;;;;5099032;28;20024;-76
2022/03/19 14:12:34;;;;;;;12.95;7.45;;;;;;;;;;5096685;28;20032;-77
2022/03/19 14:14:59;;;;;;;15.48;8.52;;;;;;;;;;5097133;28;20099;-78
2022/03/19 14:17:44;;;;;;;11.70;7.00;;;;;;;;;;5098069;28;20055;-77
2022/03/19 14:20:10;;;;;;;18.10;6.80;;;;;;;;;;5098182;28;20032;-76
2022/03/19 14:22:35;;;;;;;17.38;8.75;;;;;;;;;;5096820;28;20020;-77
2022/03/19 14:25:00;;;;;;;8.65;5.22;;;;;;;;;;5096176;28;20023;-77
2022/03/19 14:27:25;;;;;;;14.85;6.10;;;;;;;;;;5100194;28;20028;-78
2022/03/19 14:29:51;;;;;;;9.10;5.05;;;;;;;;;;5100589;28;20027;-78
2022/03/19 14:32:16;;;;;;;10.93;6.07;;;;;;;;;;5100420;28;20032;-77
2022/03/19 14:34:41;;;;;;;9.60;5.60;;;;;;;;;;5100895;28;20279;-78
2022/03/19 14:37:06;;;;;;;9.88;5.97;;;;;;;;;;5099767;28;20260;-77
2022/03/19 14:39:32;;;;;;;16.63;7.43;;;;;;;;;;5101117;28;20024;-78
2022/03/19 14:41:59;;;;;;;12.38;6.60;;;;;;;;;;5102422;28;20344;-79
2022/03/19 14:44:24;;;;;;;13.23;6.68;;;;;;;;;;5099631;28;20061;-77